Time;durP1;ratioP1;P1;durP2;ratioP2;P2;SDS_P1;SDS_P2;PMS_P1;PMS_P2;Temp;Humidity;BMP_temperature;BMP_pressure;BME280_temperature;BME280_humidity;BME280_pressure;Samples;Min_cycle;Max_cycle;Signal;HPM_P1;HPM_P2
2021/06/27 00:00:33;;;;;;;;;;;;;;;13.30;100.00;99785.56;5113767;28;20018;-78
2021/06/27 00:03:20;;;;;;;;;;;;;;;13.25;100.00;99779.66;5098441;28;19923;-78
2021/06/27 00:05:48;;;;;;;;;;;;;;;13.20;100.00;99777.31;5095456;28;19970;-78
2021/06/27 00:08:17;;;;;;;;;;;;;;;13.14;100.00;99773.41;5095528;28;20376;-78
2021/06/27 00:10:45;;;;;;;;;;;;;;;13.09;100.00;99771.06;5112245;28;19977;-78
2021/06/27 00:13:13;;;;;;;;;;;;;;;13.09;100.00;99779.47;5095585;28;19981;-78
2021/06/27 00:15:42;;;;;;;;;;;;;;;13.06;100.00;99771.91;5078610;28;19924;-78
2021/06/27 00:18:10;;;;;;;;;;;;;;;12.97;100.00;99768.81;5113432;28;19959;-78
2021/06/27 00:20:38;;;;;;;;;;;;;;;12.92;100.00;99772.13;5113281;28;20363;-78
2021/06/27 00:23:06;;;;;;;;;;;;;;;12.85;100.00;99769.38;5113360;28;19923;-78
2021/06/27 00:25:33;;;;;;;;;;;;;;;12.89;100.00;99772.97;5113092;28;20019;-79
2021/06/27 00:28:04;;;;;;;;;;;;;;;12.87;100.00;99764.97;5113644;28;19951;-79
2021/06/27 00:30:32;;;;;;;;;;;;;;;12.84;100.00;99770.63;5113293;28;19930;-79
2021/06/27 00:32:59;;;;;;;;;;;;;;;12.75;100.00;99766.31;5113637;28;19927;-78
2021/06/27 00:35:27;;;;;;;;;;;;;;;12.82;100.00;99767.44;5095290;28;20366;-79
2021/06/27 00:37:54;;;;;;;;;;;;;;;12.80;100.00;99761.47;5112948;28;19942;-78
2021/06/27 00:40:23;;;;;;;;;;;;;;;12.75;100.00;99763.50;5095418;28;20282;-78
2021/06/27 00:42:51;;;;;;;;;;;;;;;12.80;100.00;99762.25;5113214;28;19924;-78
2021/06/27 00:45:19;;;;;;;;;;;;;;;12.80;100.00;99759.44;5112045;28;19923;-78
2021/06/27 00:47:46;;;;;;;;;;;;;;;12.69;100.00;99762.38;5112987;28;20449;-78
2021/06/27 00:50:19;;;;;;;;;;;;;;;12.69;100.00;99753.97;5113375;28;19928;-78
2021/06/27 00:52:46;;;;;;;;;;;;;;;12.69;100.00;99756.78;5111936;28;19924;-78
2021/06/27 00:55:14;;;;;;;;;;;;;;;12.64;100.00;99760.06;5113301;28;20007;-78
2021/06/27 00:57:45;;;;;;;;;;;;;;;12.72;100.00;99758.75;5078378;28;19931;-78
2021/06/27 01:00:16;;;;;;;;;;;;;;;12.73;100.00;99762.34;5113081;28;19931;-78
2021/06/27 01:02:47;;;;;;;;;;;;;;;12.63;100.00;99760.50;5114792;28;19951;-78
2021/06/27 01:05:15;;;;;;;;;;;;;;;12.66;100.00;99760.44;5115482;28;20383;-78
2021/06/27 01:07:42;;;;;;;;;;;;;;;12.56;100.00;99752.16;5116732;28;19947;-78
2021/06/27 01:10:11;;;;;;;;;;;;;;;12.55;100.00;99757.00;5116611;28;19924;-78
2021/06/27 01:12:38;;;;;;;;;;;;;;;12.57;100.00;99754.53;5115634;28;19924;-78
2021/06/27 01:15:06;;;;;;;;;;;;;;;12.55;100.00;99759.78;5116504;28;19930;-78
2021/06/27 01:17:34;;;;;;;;;;;;;;;12.56;100.00;99766.97;5115469;28;19985;-78
2021/06/27 01:20:01;;;;;;;;;;;;;;;12.54;100.00;99763.78;5116674;28;19927;-78
2021/06/27 01:22:28;;;;;;;;;;;;;;;12.61;100.00;99763.72;5098191;28;20375;-78
2021/06/27 01:24:55;;;;;;;;;;;;;;;12.67;100.00;99772.44;5114909;28;19923;-78
2021/06/27 01:27:22;;;;;;;;;;;;;;;12.62;100.00;99764.50;5116399;28;19923;-78
2021/06/27 01:29:49;;;;;;;;;;;;;;;12.66;100.00;99777.25;5116512;28;20367;-78
2021/06/27 01:32:16;;;;;;;;;;;;;;;12.59;100.00;99779.34;5116149;28;19973;-78
2021/06/27 01:34:44;;;;;;;;;;;;;;;12.68;100.00;99783.25;5116308;28;19934;-78
2021/06/27 01:37:11;;;;;;;;;;;;;;;12.77;100.00;99789.13;5115810;28;19931;-79
2021/06/27 01:39:38;;;;;;;;;;;;;;;12.83;100.00;99792.25;5116115;28;20012;-79
2021/06/27 01:42:05;;;;;;;;;;;;;;;12.82;100.00;99781.44;5116268;28;19930;-78
2021/06/27 01:44:32;;;;;;;;;;;;;;;12.90;100.00;99791.38;5115980;28;19923;-78
2021/06/27 01:47:00;;;;;;;;;;;;;;;12.92;100.00;99800.16;5113576;27;19969;-78
2021/06/27 01:49:27;;;;;;;;;;;;;;;12.83;100.00;99799.88;5116000;28;19924;-78
2021/06/27 01:51:54;;;;;;;;;;;;;;;12.91;100.00;99804.16;5115741;28;19981;-79
2021/06/27 01:54:21;;;;;;;;;;;;;;;12.94;100.00;99803.31;5083576;28;19927;-79
2021/06/27 01:56:48;;;;;;;;;;;;;;;12.93;100.00;99796.94;5115813;28;19927;-79
2021/06/27 01:59:16;;;;;;;;;;;;;;;12.90;100.00;99796.97;5115714;28;20402;-79
2021/06/27 02:01:43;;;;;;;;;;;;;;;12.97;100.00;99796.88;5097409;28;19930;-79
2021/06/27 02:04:10;;;;;;;;;;;;;;;12.82;100.00;99789.88;5115677;28;19930;-78
2021/06/27 02:06:42;;;;;;;;;;;;;;;12.88;100.00;99788.97;5115312;28;19924;-78
2021/06/27 02:09:11;;;;;;;;;;;;;;;12.81;100.00;99788.28;5097575;28;19923;-78
2021/06/27 02:11:38;;;;;;;;;;;;;;;12.77;100.00;99789.13;5097532;28;20000;-78
2021/06/27 02:14:06;;;;;;;;;;;;;;;12.80;100.00;99786.72;5113540;28;20328;-78
2021/06/27 02:16:34;;;;;;;;;;;;;;;12.85;100.00;99795.44;5115685;28;19951;-78
2021/06/27 02:19:02;;;;;;;;;;;;;;;12.87;100.00;99797.81;5097170;28;19924;-79
2021/06/27 02:21:31;;;;;;;;;;;;;;;12.81;100.00;99788.28;5115242;28;19924;-79
2021/06/27 02:24:00;;;;;;;;;;;;;;;12.86;100.00;99785.78;5115134;28;19984;-78
2021/06/27 02:26:27;;;;;;;;;;;;;;;12.89;100.00;99789.78;5080316;28;19931;-79
2021/06/27 02:28:57;;;;;;;;;;;;;;;12.90;100.00;99791.38;5115173;28;19963;-79
2021/06/27 02:31:26;;;;;;;;;;;;;;;12.90;100.00;99786.56;5115192;28;19927;-78
2021/06/27 02:33:53;;;;;;;;;;;;;;;12.88;100.00;99782.56;5114932;28;20389;-78
2021/06/27 02:36:20;;;;;;;;;;;;;;;12.86;100.00;99779.41;5097046;28;19927;-79
2021/06/27 02:38:49;;;;;;;;;;;;;;;12.88;100.00;99782.56;5115216;28;19924;-79
2021/06/27 02:41:16;;;;;;;;;;;;;;;12.92;100.00;99772.88;5115005;28;20103;-79
2021/06/27 02:43:43;;;;;;;;;;;;;;;12.96;100.00;99773.66;5114899;28;19931;-79
2021/06/27 02:46:10;;;;;;;;;;;;;;;12.98;100.00;99778.84;5114809;28;19931;-79
2021/06/27 02:48:37;;;;;;;;;;;;;;;12.91;100.00;99776.09;5097182;28;19928;-78
2021/06/27 02:51:05;;;;;;;;;;;;;;;12.91;100.00;99773.31;5096676;28;19927;-78
2021/06/27 02:53:32;;;;;;;;;;;;;;;12.89;100.00;99778.56;5116460;27;20329;-78
2021/06/27 02:56:08;;;;;;;;;;;;;;;12.88;100.00;99776.97;5133029;27;19933;-78
2021/06/27 02:58:37;;;;;;;;;;;;;;;12.86;100.00;99773.81;5134372;27;19966;-79
2021/06/27 03:01:05;;;;;;;;;;;;;;;12.84;100.00;99765.00;5135246;27;19923;-79
2021/06/27 03:03:32;;;;;;;;;;;;;;;12.81;100.00;99765.84;5134979;27;19927;-78
2021/06/27 03:06:00;;;;;;;;;;;;;;;12.82;100.00;99762.63;5135362;27;20302;-79
2021/06/27 03:08:27;;;;;;;;;;;;;;;12.91;100.00;99767.69;5116668;27;19970;-78
2021/06/27 03:10:54;;;;;;;;;;;;;;;12.88;100.00;99754.53;5135068;27;20476;-78
2021/06/27 03:13:22;;;;;;;;;;;;;;;12.90;100.00;99757.72;5116194;27;19923;-78
2021/06/27 03:15:49;;;;;;;;;;;;;;;12.83;100.00;99755.00;5135029;27;19946;-78
2021/06/27 03:18:16;;;;;;;;;;;;;;;12.78;100.00;99759.84;5116544;27;19930;-78
2021/06/27 03:20:43;;;;;;;;;;;;;;;12.73;100.00;99749.13;5116627;27;19923;-78
2021/06/27 03:23:11;;;;;;;;;;;;;;;12.70;100.00;99755.59;5134972;27;19946;-78
2021/06/27 03:25:40;;;;;;;;;;;;;;;12.72;100.00;99753.13;5116810;27;19930;-78
2021/06/27 03:28:07;;;;;;;;;;;;;;;12.77;100.00;99749.88;5134606;27;19924;-78
2021/06/27 03:30:34;;;;;;;;;;;;;;;12.76;100.00;99744.69;5134689;27;20016;-78
2021/06/27 03:33:01;;;;;;;;;;;;;;;12.77;100.00;99749.88;5134797;27;20378;-79
2021/06/27 03:35:28;;;;;;;;;;;;;;;12.84;100.00;99742.56;5116561;27;19924;-78
2021/06/27 03:38:04;;;;;;;;;;;;;;;12.82;100.00;99745.78;5134691;27;19928;-78
2021/06/27 03:40:31;;;;;;;;;;;;;;;12.87;100.00;99738.91;5116538;27;20517;-78
2021/06/27 03:43:01;;;;;;;;;;;;;;;12.88;100.00;99743.28;5134365;27;20389;-78
2021/06/27 03:45:29;;;;;;;;;;;;;;;12.84;100.00;99736.97;5116309;27;19923;-78
2021/06/27 03:47:56;;;;;;;;;;;;;;;12.80;100.00;99725.78;5116073;27;19927;-78
2021/06/27 03:50:24;;;;;;;;;;;;;;;12.80;100.00;99728.59;5134630;27;19923;-78
2021/06/27 03:52:51;;;;;;;;;;;;;;;12.81;100.00;99735.00;5134213;27;19929;-78
2021/06/27 03:55:19;;;;;;;;;;;;;;;12.78;100.00;99731.81;5116341;27;19935;-78
2021/06/27 03:57:47;;;;;;;;;;;;;;;12.85;100.00;99727.31;5134333;27;19934;-78
2021/06/27 04:00:15;;;;;;;;;;;;;;;12.88;100.00;99732.09;5134439;27;20261;-79
2021/06/27 04:02:43;;;;;;;;;;;;;;;12.91;100.00;99731.25;5133205;27;19923;-78
2021/06/27 04:05:11;;;;;;;;;;;;;;;12.80;100.00;99730.63;5115967;27;20014;-78
2021/06/27 04:07:39;;;;;;;;;;;;;;;12.79;100.00;99729.81;5133953;27;19927;-78
2021/06/27 04:10:07;;;;;;;;;;;;;;;12.76;100.00;99733.47;5116076;28;19932;-79
2021/06/27 04:12:34;;;;;;;;;;;;;;;12.75;100.00;99729.06;5134496;27;20367;-78
2021/06/27 04:15:03;;;;;;;;;;;;;;;12.77;100.00;99738.66;5134047;27;19930;-79
2021/06/27 04:17:30;;;;;;;;;;;;;;;12.77;100.00;99741.44;5132873;27;19927;-78
2021/06/27 04:19:57;;;;;;;;;;;;;;;12.80;100.00;99739.03;5134099;27;19924;-79
2021/06/27 04:22:26;;;;;;;;;;;;;;;12.80;100.00;99739.03;5120085;27;20355;-78
2021/06/27 04:24:53;;;;;;;;;;;;;;;12.77;100.00;99735.84;5115992;28;19931;-78
2021/06/27 04:27:20;;;;;;;;;;;;;;;12.83;100.00;99741.00;5134041;27;20323;-79
2021/06/27 04:29:47;;;;;;;;;;;;;;;12.88;100.00;99744.09;5133342;27;20374;-78
2021/06/27 04:32:14;;;;;;;;;;;;;;;12.91;100.00;99748.06;5115471;28;20373;-78
2021/06/27 04:34:42;;;;;;;;;;;;;;;12.91;100.00;99737.66;5116252;27;19927;-78
2021/06/27 04:37:09;;;;;;;;;;;;;;;12.97;100.00;99735.16;5134722;27;19933;-78
2021/06/27 04:39:36;;;;;;;;;;;;;;;12.98;100.00;99736.75;5138099;27;19923;-78
2021/06/27 04:42:04;;;;;;;;;;;;;;;13.04;100.00;99730.25;5119593;27;19930;-78
2021/06/27 04:44:31;;;;;;;;;;;;;;;12.94;100.00;99731.19;5137781;27;20370;-78
2021/06/27 04:46:59;;;;;;;;;;;;;;;13.00;100.00;99740.75;5137680;27;19924;-78
2021/06/27 04:49:26;;;;;;;;;;;;;;;13.04;100.00;99741.47;5137677;27;19928;-78
2021/06/27 04:51:53;;;;;;;;;;;;;;;13.13;100.00;99727.72;5119671;27;19927;-79
2021/06/27 04:54:20;;;;;;;;;;;;;;;12.99;100.00;99727.13;5137426;27;20390;-78
2021/06/27 04:56:47;;;;;;;;;;;;;;;13.08;100.00;99727.41;5137710;27;19923;-78
2021/06/27 04:59:15;;;;;;;;;;;;;;;13.11;100.00;99727.38;5119007;27;19928;-78
2021/06/27 05:01:42;;;;;;;;;;;;;;;13.23;100.00;99723.16;5137568;27;19935;-79
2021/06/27 05:04:09;;;;;;;;;;;;;;;13.17;100.00;99722.06;5108168;28;19931;-78
2021/06/27 05:06:36;;;;;;;;;;;;;;;13.19;100.00;99714.78;5119111;27;20374;-79
2021/06/27 05:09:05;;;;;;;;;;;;;;;13.06;100.00;99722.22;5115077;27;19973;-79
2021/06/27 05:11:33;;;;;;;;;;;;;;;13.11;100.00;99723.75;5110228;28;19931;-80
2021/06/27 05:14:00;;;;;;;;;;;;;;;13.16;100.00;99715.63;5101897;28;20280;-78
2021/06/27 05:16:27;;;;;;;;;;;;;;;13.10;100.00;99719.38;5087223;28;19927;-79
2021/06/27 05:18:54;;;;;;;;;;;;;;;13.20;100.00;99716.41;5121652;27;19930;-79
2021/06/27 05:21:22;;;;;;;;;;;;;;;13.26;100.00;99711.06;5103341;28;19931;-79
2021/06/27 05:23:49;;;;;;;;;;;;;;;13.30;100.00;99709.03;5131477;27;20015;-79
2021/06/27 05:26:17;;;;;;;;;;;;;;;13.35;100.00;99705.72;5117073;27;19928;-79
2021/06/27 05:28:44;;;;;;;;;;;;;;;13.35;100.00;99709.31;5118570;27;19932;-79
2021/06/27 05:31:13;;;;;;;;;;;;;;;13.35;100.00;99712.13;5119287;27;19932;-79
2021/06/27 05:33:40;;;;;;;;;;;;;;;13.38;100.00;99700.06;5098765;28;19967;-79
2021/06/27 05:36:08;;;;;;;;;;;;;;;13.23;100.00;99709.13;5109624;27;19927;-78
2021/06/27 05:38:35;;;;;;;;;;;;;;;13.31;100.00;99705.78;5109904;27;20014;-79
2021/06/27 05:41:02;;;;;;;;;;;;;;;13.31;100.00;99707.78;5116178;27;19939;-79
2021/06/27 05:43:31;;;;;;;;;;;;;;;13.43;100.00;99712.81;5111098;27;19927;-79
2021/06/27 05:45:58;;;;;;;;;;;;;;;13.30;100.00;99721.03;5117910;27;19967;-79
2021/06/27 05:48:26;;;;;;;;;;;;;;;13.31;100.00;99716.22;5129439;27;20435;-79
2021/06/27 05:50:53;;;;;;;;;;;;;;;13.33;100.00;99719.41;5130250;27;20395;-79
2021/06/27 05:53:20;;;;;;;;;;;;;;;13.44;100.00;99717.19;5113782;27;19935;-79
2021/06/27 05:55:47;;;;;;;;;;;;;;;13.46;100.00;99717.56;5106304;27;19962;-79
2021/06/27 05:58:15;;;;;;;;;;;;;;;13.47;100.00;99724.75;5113443;27;19988;-79
2021/06/27 06:00:42;;;;;;;;;;;;;;;13.39;100.00;99712.84;5126913;27;19924;-79
2021/06/27 06:03:09;;;;;;;;;;;;;;;13.40;100.00;99720.06;5121681;27;19932;-79
2021/06/27 06:05:37;;;;;;;;;;;;;;;13.39;100.00;99729.69;5119226;27;19932;-79
2021/06/27 06:08:04;;;;;;;;;;;;;;;13.37;100.00;99732.16;5120235;27;19923;-79
2021/06/27 06:10:32;;;;;;;;;;;;;;;13.40;100.00;99736.09;5112352;27;19927;-79
2021/06/27 06:12:59;;;;;;;;;;;;;;;13.43;100.00;99738.88;5086022;27;19942;-79
2021/06/27 06:15:26;;;;;;;;;;;;;;;13.55;100.00;99734.66;5098175;27;19948;-79
2021/06/27 06:17:53;;;;;;;;;;;;;;;13.39;100.00;99740.16;5128391;27;20006;-79
2021/06/27 06:20:21;;;;;;;;;;;;;;;13.41;100.00;99737.69;5101412;27;19942;-79
2021/06/27 06:22:48;;;;;;;;;;;;;;;13.38;100.00;99739.34;5104273;28;19939;-79
2021/06/27 06:25:17;;;;;;;;;;;;;;;13.45;100.00;99749.66;5107086;28;19928;-79
2021/06/27 06:27:45;;;;;;;;;;;;;;;13.45;100.00;99739.22;5085129;28;19924;-79
2021/06/27 06:30:13;;;;;;;;;;;;;;;13.54;100.00;99744.31;5101353;28;19925;-79
2021/06/27 06:32:40;;;;;;;;;;;;;;;13.49;100.00;99739.97;5075030;28;19971;-79
2021/06/27 06:35:07;;;;;;;;;;;;;;;13.41;100.00;99732.06;5074700;28;19928;-78
2021/06/27 06:37:35;;;;;;;;;;;;;;;13.34;100.00;99730.19;5105788;28;19928;-79
2021/06/27 06:40:03;;;;;;;;;;;;;;;13.38;100.00;99741.34;5107252;28;19925;-79
2021/06/27 06:42:30;;;;;;;;;;;;;;;13.32;100.00;99745.84;5106835;28;19974;-79
2021/06/27 06:44:57;;;;;;;;;;;;;;;13.26;100.00;99753.16;5074519;28;19929;-79
2021/06/27 06:47:31;;;;;;;;;;;;;;;13.19;100.00;99750.50;5074645;28;19940;-79
2021/06/27 06:50:00;;;;;;;;;;;;;;;13.17;100.00;99758.53;5074422;28;20287;-79
2021/06/27 06:52:27;;;;;;;;;;;;;;;13.20;100.00;99771.72;5087757;28;19924;-79
2021/06/27 06:54:55;;;;;;;;;;;;;;;13.20;100.00;99766.91;5099159;28;19970;-79
2021/06/27 06:57:23;;;;;;;;;;;;;;;13.22;100.00;99772.91;5078304;28;19924;-78
2021/06/27 06:59:50;;;;;;;;;;;;;;;13.31;100.00;99772.34;5072685;28;19929;-78
2021/06/27 07:02:18;;;;;;;;;;;;;;;13.29;100.00;99777.59;5087743;28;19924;-77
2021/06/27 07:04:45;;;;;;;;;;;;;;;13.34;100.00;99765.88;5091250;28;20367;-78
2021/06/27 07:07:12;;;;;;;;;;;;;;;13.13;100.00;99766.22;5113440;28;19963;-77
2021/06/27 07:09:39;;;;;;;;;;;;;;;13.13;100.00;99778.22;5107446;28;20014;-81
2021/06/27 07:12:07;;;;;;;;;;;;;;;13.10;100.00;99783.91;5113628;28;19931;-82
2021/06/27 07:14:34;;;;;;;;;;;;;;;13.17;100.00;99780.97;5101434;28;19924;-81
2021/06/27 07:17:01;;;;;;;;;;;;;;;13.15;100.00;99789.81;5092615;28;19931;-80
2021/06/27 07:19:30;;;;;;;;;;;;;;;13.14;100.00;99785.44;5104490;28;19939;-81
2021/06/27 07:21:58;;;;;;;;;;;;;;;13.12;100.00;99787.06;5113606;28;20015;-81
2021/06/27 07:24:25;;;;;;;;;;;;;;;13.19;100.00;99782.13;5121170;27;20010;-81
2021/06/27 07:26:54;;;;;;;;;;;;;;;13.31;100.00;99786.38;5108104;27;19924;-81
2021/06/27 07:29:22;;;;;;;;;;;;;;;13.35;100.00;99784.31;5095804;27;19923;-79
2021/06/27 07:31:49;;;;;;;;;;;;;;;13.47;100.00;99792.13;5107509;27;19980;-80
2021/06/27 07:34:16;;;;;;;;;;;;;;;13.55;100.00;99791.59;5106954;27;19969;-80
2021/06/27 07:36:43;;;;;;;;;;;;;;;13.53;100.00;99790.41;5099122;28;19972;-79
2021/06/27 07:39:11;;;;;;;;;;;;;;;13.55;100.00;99793.59;5107033;27;19927;-79
2021/06/27 07:41:38;;;;;;;;;;;;;;;13.59;100.00;99802.75;5113618;27;20389;-79
2021/06/27 07:44:07;;;;;;;;;;;;;;;13.60;100.00;99798.75;5119018;27;19936;-78
2021/06/27 07:46:34;;;;;;;;;;;;;;;13.63;100.00;99795.09;5091717;28;19927;-79
2021/06/27 07:49:01;;;;;;;;;;;;;;;13.79;100.00;99792.41;5117560;27;19965;-79
2021/06/27 07:51:28;;;;;;;;;;;;;;;13.83;100.00;99795.94;5107707;28;19999;-79
2021/06/27 07:53:55;;;;;;;;;;;;;;;13.85;100.00;99788.69;5108822;27;20256;-80
2021/06/27 07:56:23;;;;;;;;;;;;;;;13.84;100.00;99783.50;5108598;28;19958;-79
2021/06/27 07:58:53;;;;;;;;;;;;;;;13.96;100.00;99777.25;5077114;28;19928;-79
2021/06/27 08:01:22;;;;;;;;;;;;;;;13.97;100.00;99767.59;5096824;28;19932;-79
2021/06/27 08:03:50;;;;;;;;;;;;;;;14.02;100.00;99764.28;5108255;28;19924;-80
2021/06/27 08:06:17;;;;;;;;;;;;;;;14.17;100.00;99766.41;5127742;27;20022;-79
2021/06/27 08:08:45;;;;;;;;;;;;;;;14.19;100.00;99763.16;5130158;27;20010;-76
2021/06/27 08:11:12;;;;;;;;;;;;;;;14.29;100.00;99759.38;5117272;28;19923;-76
2021/06/27 08:13:39;;;;;;;;;;;;;;;14.38;100.00;99740.72;5134886;27;19931;-80
2021/06/27 08:16:06;;;;;;;;;;;;;;;14.33;100.00;99737.59;5129029;27;19924;-80
2021/06/27 08:18:33;;;;;;;;;;;;;;;14.38;100.00;99725.84;5128907;27;19924;-79
2021/06/27 08:21:00;;;;;;;;;;;;;;;14.36;100.00;99725.47;5105329;27;19985;-80
2021/06/27 08:23:30;;;;;;;;;;;;;;;14.23;100.00;99716.94;5108556;27;19985;-80
2021/06/27 08:25:57;;;;;;;;;;;;;;;14.17;100.00;99707.38;5105656;27;19951;-89
2021/06/27 08:28:25;;;;;;;;;;;;;;;14.19;100.00;99698.53;5089743;27;19924;-90
2021/06/27 08:30:52;;;;;;;;;;;;;;;14.17;100.00;99695.34;5065287;28;19931;-80
2021/06/27 08:33:19;;;;;;;;;;;;;;;14.40;100.00;99692.47;5113280;28;19930;-80
2021/06/27 08:35:46;;;;;;;;;;;;;;;14.57;100.00;99677.22;5096111;28;19928;-80
2021/06/27 08:38:14;;;;;;;;;;;;;;;14.70;100.00;99672.53;5108326;28;20011;-80
2021/06/27 08:40:41;;;;;;;;;;;;;;;14.91;100.00;99672.03;5097905;28;20042;-81
2021/06/27 08:43:09;;;;;;;;;;;;;;;14.63;100.00;99657.84;5099294;28;19927;-80
2021/06/27 08:45:55;;;;;;;;;;;;;;;14.66;100.00;99646.47;5116573;28;19930;-80
2021/06/27 08:48:23;;;;;;;;;;;;;;;14.71;100.00;99645.97;5098543;28;19930;-80
2021/06/27 08:50:50;;;;;;;;;;;;;;;14.73;100.00;99635.09;5115592;28;20082;-80
2021/06/27 08:53:18;;;;;;;;;;;;;;;14.75;100.00;99629.03;5116823;28;19935;-80
2021/06/27 08:55:45;;;;;;;;;;;;;;;14.74;100.00;99616.97;5116685;28;20319;-80
2021/06/27 08:58:13;;;;;;;;;;;;;;;14.67;100.00;99602.28;5098724;28;20283;-80
2021/06/27 09:00:40;;;;;;;;;;;;;;;14.66;100.00;99603.53;5116557;28;19931;-80
2021/06/27 09:03:10;;;;;;;;;;;;;;;14.66;100.00;99597.91;5114721;27;19935;-80
2021/06/27 09:05:40;;;;;;;;;;;;;;;14.70;100.00;99587.34;5111397;28;19949;-80
2021/06/27 09:08:14;;;;;;;;;;;;;;;14.64;100.00;99583.47;5115243;28;19934;-80
2021/06/27 09:10:42;;;;;;;;;;;;;;;14.57;100.00;99580.84;5082329;28;19924;-80
2021/06/27 09:13:09;;;;;;;;;;;;;;;14.56;100.00;99576.44;5110937;28;19927;-80
2021/06/27 09:15:48;;;;;;;;;;;;;;;14.44;100.00;99570.28;5068243;28;19923;-80
2021/06/27 09:18:15;;;;;;;;;;;;;;;14.58;100.00;99571.97;5117156;28;19924;-80
2021/06/27 09:20:51;;;;;;;;;;;;;;;14.41;100.00;99562.72;5099229;28;19938;-80
2021/06/27 09:23:31;;;;;;;;;;;;;;;14.33;100.00;99568.94;5081265;28;19924;-80
2021/06/27 09:25:58;;;;;;;;;;;;;;;14.56;100.00;99577.22;5099102;28;19930;-80
2021/06/27 09:28:39;;;;;;;;;;;;;;;14.52;100.00;99568.09;5104838;28;19935;-80
2021/06/27 09:31:06;;;;;;;;;;;;;;;14.57;100.00;99561.16;5091681;28;19924;-81
2021/06/27 09:33:33;;;;;;;;;;;;;;;14.56;100.00;99565.97;5092337;28;19973;-81
2021/06/27 09:36:03;;;;;;;;;;;;;;;14.78;100.00;99555.00;5109697;28;20019;-81
2021/06/27 09:38:34;;;;;;;;;;;;;;;14.80;100.00;99558.19;5108260;28;20426;-81
2021/06/27 09:41:27;;;;;;;;;;;;;;;14.90;100.00;99555.09;5095089;28;19940;-81
2021/06/27 09:43:59;;;;;;;;;;;;;;;14.89;100.00;99549.91;5111134;28;20351;-81
2021/06/27 09:46:32;;;;;;;;;;;;;;;14.74;100.00;99538.19;5081596;28;19931;-81
2021/06/27 09:49:03;;;;;;;;;;;;;;;14.70;100.00;99547.97;5094931;28;20015;-81
2021/06/27 09:51:31;;;;;;;;;;;;;;;14.74;100.00;99548.69;5103109;28;19924;-82
2021/06/27 09:53:59;;;;;;;;;;;;;;;14.52;100.00;99542.78;5104105;27;20020;-81
2021/06/27 09:56:27;;;;;;;;;;;;;;;14.67;100.00;99537.59;5114319;27;19924;-80
2021/06/27 09:58:55;;;;;;;;;;;;;;;14.87;100.00;99530.66;5116795;27;19976;-81
2021/06/27 10:01:25;;;;;;;;;;;;;;;15.08;100.00;99532.09;5097084;27;19924;-81
2021/06/27 10:03:54;;;;;;;;;;;;;;;15.09;100.00;99534.47;5112615;27;19924;-79
2021/06/27 10:06:24;;;;;;;;;;;;;;;14.98;100.00;99525.50;5118737;27;19928;-80
2021/06/27 10:08:51;;;;;;;;;;;;;;;14.99;100.00;99521.50;5114686;28;19931;-79
2021/06/27 10:11:23;;;;;;;;;;;;;;;15.04;100.00;99518.13;5110014;28;19969;-79
2021/06/27 10:13:54;;;;;;;;;;;;;;;14.98;100.00;99513.50;5112032;28;19924;-79
2021/06/27 10:16:30;;;;;;;;;;;;;;;14.82;100.00;99517.09;5078975;28;19924;-79
2021/06/27 10:18:58;;;;;;;;;;;;;;;14.99;100.00;99515.88;5113034;28;19931;-79
2021/06/27 10:21:26;;;;;;;;;;;;;;;14.97;100.00;99517.50;5076386;28;19924;-78
2021/06/27 10:23:54;;;;;;;;;;;;;;;14.78;100.00;99516.41;5093824;28;19924;-79
2021/06/27 10:26:23;;;;;;;;;;;;;;;14.71;100.00;99513.78;5088578;28;19938;-78
2021/06/27 10:28:51;;;;;;;;;;;;;;;14.72;100.00;99512.56;5111783;28;19924;-79
2021/06/27 10:31:20;;;;;;;;;;;;;;;14.84;100.00;99514.66;5110341;28;19951;-80
2021/06/27 10:33:47;;;;;;;;;;;;;;;15.06;100.00;99515.66;5111804;28;19928;-79
2021/06/27 10:36:17;;;;;;;;;;;;;;;15.34;100.00;99506.41;5110857;28;19924;-79
2021/06/27 10:38:48;;;;;;;;;;;;;;;15.42;100.00;99507.84;5109212;28;19927;-78
2021/06/27 10:41:16;;;;;;;;;;;;;;;15.38;100.00;99515.59;5122529;27;20023;-79
2021/06/27 10:43:59;;;;;;;;;;;;;;;15.28;100.00;99505.38;5107424;27;20274;-79
2021/06/27 10:46:35;;;;;;;;;;;;;;;15.25;100.00;99511.91;5093740;28;19923;-79
2021/06/27 10:49:03;;;;;;;;;;;;;;;15.07;100.00;99511.59;5119933;27;19929;-78
2021/06/27 10:51:49;;;;;;;;;;;;;;;14.97;100.00;99523.94;5108879;28;20344;-79
2021/06/27 10:54:17;;;;;;;;;;;;;;;14.97;100.00;99512.69;5109323;28;19932;-78
2021/06/27 10:56:50;;;;;;;;;;;;;;;14.98;100.00;99510.69;5094861;28;19945;-78
2021/06/27 10:59:52;;;;;;;;;;;;;;;14.92;100.00;99513.22;5091794;28;19969;-79
2021/06/27 11:02:38;;;;;;;;;;;;;;;14.89;100.00;99516.91;5053134;28;19976;-78
2021/06/27 11:05:24;;;;;;;;;;;;;;;14.86;100.00;99517.78;5086403;28;20351;-78
2021/06/27 11:07:52;;;;;;;;;;;;;;;15.00;100.00;99517.44;5112055;28;19928;-79
2021/06/27 11:10:22;;;;;;;;;;;;;;;14.91;100.00;99516.47;5107053;28;20309;-78
2021/06/27 11:12:57;;;;;;;;;;;;;;;14.83;100.00;99523.53;5102951;28;20373;-78
2021/06/27 11:15:58;;;;;;;;;;;;;;;14.68;100.00;99523.09;5105207;28;19924;-78
2021/06/27 11:18:36;;;;;;;;;;;;;;;14.74;100.00;99524.13;5110860;28;19937;-78
2021/06/27 11:21:05;;;;;;;;;;;;;;;14.72;100.00;99523.00;5118220;27;19930;-78
2021/06/27 11:23:46;;;;;;;;;;;;;;;14.56;100.00;99526.59;5095595;28;20018;-78
2021/06/27 11:26:32;;;;;;;;;;;;;;;14.66;100.00;99524.78;5113605;27;19950;-78
2021/06/27 11:29:00;;;;;;;;;;;;;;;14.70;100.00;99526.25;5119835;27;20416;-80
2021/06/27 11:31:27;;;;;;;;;;;;;;;14.96;100.00;99527.19;5117100;27;20335;-80
2021/06/27 11:34:24;;;;;;;;;;;;;;;15.08;100.00;99518.84;5108472;27;19932;-80
2021/06/27 11:36:52;;;;;;;;;;;;;;;15.39;100.00;99514.38;5099083;27;19923;-80
2021/06/27 11:39:38;;;;;;;;;;;;;;;15.44;100.00;99513.84;5111687;27;20731;-80
2021/06/27 11:42:26;;;;;;;;;;;;;;;15.36;100.00;99503.16;5093665;28;20283;-79
2021/06/27 11:45:03;;;;;;;;;;;;;;;15.39;100.00;99499.50;5106553;28;19924;-79
2021/06/27 11:47:31;;;;;;;;;;;;;;;15.53;100.00;99499.09;5107288;28;20057;-79
2021/06/27 11:50:12;;;;;;;;;;;;;;;15.59;100.00;99497.31;5111351;27;19931;-79
2021/06/27 11:52:40;;;;;;;;;;;;;;;15.63;100.00;99495.97;5101393;28;19924;-79
2021/06/27 11:55:08;;;;;;;;;;;;;;;15.32;100.00;99485.59;5116319;27;20035;-77
2021/06/27 11:57:40;;;;;;;;;;;;;;;15.30;100.00;99480.41;5104359;28;19924;-78
2021/06/27 12:00:09;;;;;;;;;;;;;;;15.50;100.00;99483.88;5105848;28;19927;-78
2021/06/27 12:02:37;;;;;;;;;;;;;;;15.63;100.00;99472.66;5121699;27;19923;-77
2021/06/27 12:05:08;;;;;;;;;;;;;;;15.82;100.00;99466.03;5102008;28;19923;-78
2021/06/27 12:07:38;;;;;;;;;;;;;;;16.04;100.00;99453.63;5134333;27;20023;-77
2021/06/27 12:10:07;;;;;;;;;;;;;;;16.10;100.00;99449.00;5109708;28;19932;-77
2021/06/27 12:12:40;;;;;;;;;;;;;;;16.22;100.00;99442.56;5114921;28;20415;-78
2021/06/27 12:15:48;;;;;;;;;;;;;;;16.16;100.00;99441.56;5101546;28;20368;-78
2021/06/27 12:18:19;;;;;;;;;;;;;;;16.23;100.00;99424.44;5102973;28;20528;-78
2021/06/27 12:20:49;;;;;;;;;;;;;;;16.11;100.00;99422.38;5106410;28;19923;-77
2021/06/27 12:23:16;;;;;;;;;;;;;;;16.12;100.00;99407.06;5119415;28;19977;-77
2021/06/27 12:25:49;;;;;;;;;;;;;;;16.27;100.00;99403.78;5109045;28;19924;-78
2021/06/27 12:28:27;;;;;;;;;;;;;;;16.68;100.00;99406.41;5091198;28;19924;-78
2021/06/27 12:30:55;;;;;;;;;;;;;;;16.76;100.00;99402.09;5089435;28;19932;-79
2021/06/27 12:33:28;;;;;;;;;;;;;;;17.00;100.00;99391.94;5094744;28;19931;-79
2021/06/27 12:35:57;;;;;;;;;;;;;;;17.01;100.00;99397.13;5078574;28;19924;-78
2021/06/27 12:38:25;;;;;;;;;;;;;;;16.88;100.00;99384.31;5059942;28;19931;-78
2021/06/27 12:40:57;;;;;;;;;;;;;;;16.92;100.00;99373.72;5095475;28;19924;-78
2021/06/27 12:43:30;;;;;;;;;;;;;;;16.74;100.00;99371.50;5101447;28;19930;-78
2021/06/27 12:46:13;;;;;;;;;;;;;;;16.98;100.00;99371.88;5075190;28;19931;-77